createdAt,value
2023-01-11T00:02:37.407Z,64.61
2023-01-11T00:05:35.290Z,64.68
2023-01-11T00:08:32.667Z,64.70
2023-01-11T00:11:30.425Z,64.53
2023-01-11T00:14:27.799Z,64.40
2023-01-11T00:17:25.551Z,64.42
2023-01-11T00:20:22.921Z,64.60
2023-01-11T00:23:20.774Z,64.71
2023-01-11T00:26:18.152Z,64.80
2023-01-11T00:29:16.017Z,64.94
2023-01-11T00:32:13.402Z,65.13
2023-01-11T00:35:11.190Z,65.30
2023-01-11T00:38:08.562Z,65.47
2023-01-11T00:41:26.422Z,65.71
2023-01-11T00:44:42.182Z,65.97
2023-01-11T00:47:57.282Z,66.21
2023-01-11T00:50:55.230Z,66.43
2023-01-11T00:53:52.587Z,66.66
2023-01-11T00:56:50.579Z,66.85
2023-01-11T00:59:47.977Z,67.06
2023-01-11T01:02:45.956Z,67.25
2023-01-11T01:05:43.419Z,67.38
2023-01-11T01:08:41.261Z,67.53
2023-01-11T01:11:38.647Z,67.61
2023-01-11T01:14:36.474Z,67.68
2023-01-11T01:17:33.863Z,67.70
2023-01-11T01:20:31.696Z,67.76
2023-01-11T01:23:29.068Z,67.80
2023-01-11T01:26:27.032Z,67.83
2023-01-11T01:29:24.405Z,67.88
2023-01-11T01:32:22.255Z,67.92
2023-01-11T01:35:19.622Z,68.03
2023-01-11T01:38:17.505Z,68.01
2023-01-11T01:41:15.257Z,68.12
2023-01-11T01:44:12.615Z,68.20
2023-01-11T01:47:10.780Z,68.21
2023-01-11T01:50:08.164Z,68.29
2023-01-11T01:53:06.001Z,68.38
2023-01-11T01:56:03.362Z,68.45
2023-01-11T01:59:01.245Z,68.52
2023-01-11T02:01:58.655Z,68.63
2023-01-11T02:04:57.351Z,68.74
2023-01-11T02:07:57.218Z,68.79
2023-01-11T02:10:54.712Z,68.82
2023-01-11T02:13:52.309Z,68.89
2023-01-11T02:16:49.998Z,68.88
2023-01-11T02:19:47.367Z,68.90
2023-01-11T02:22:45.051Z,68.92
2023-01-11T02:25:44.137Z,68.95
2023-01-11T02:28:41.666Z,69.00
2023-01-11T02:31:39.089Z,68.98
2023-01-11T02:34:38.125Z,68.99
2023-01-11T02:37:35.794Z,69.01
2023-01-11T02:40:33.179Z,69.01
2023-01-11T02:43:48.339Z,69.09
2023-01-11T02:46:45.746Z,69.09
2023-01-11T02:49:43.859Z,69.12
2023-01-11T02:52:41.245Z,69.21
2023-01-11T02:55:38.813Z,69.22
2023-01-11T02:58:36.444Z,69.30
2023-01-11T03:01:33.880Z,69.28
2023-01-11T03:04:31.533Z,69.26
2023-01-11T03:07:28.914Z,69.28
2023-01-11T03:10:26.505Z,69.30
2023-01-11T03:13:23.871Z,69.29
2023-01-11T03:16:21.544Z,69.27
2023-01-11T03:19:18.995Z,69.31
2023-01-11T03:22:16.576Z,69.32
2023-01-11T03:25:14.184Z,69.36
2023-01-11T03:28:11.571Z,69.39
2023-01-11T03:31:09.123Z,69.45
2023-01-11T03:34:06.615Z,69.49
2023-01-11T03:37:04.237Z,69.57
2023-01-11T03:40:03.996Z,69.71
2023-01-11T03:43:13.928Z,69.82
2023-01-11T03:46:11.566Z,69.93
2023-01-11T03:49:08.973Z,70.08
2023-01-11T03:52:06.523Z,70.23
2023-01-11T03:55:03.897Z,70.41
2023-01-11T03:58:01.579Z,70.55
2023-01-11T04:00:59.746Z,70.65
2023-01-11T04:03:57.246Z,70.70
2023-01-11T04:06:55.069Z,70.87
2023-01-11T04:09:52.530Z,71.00
2023-01-11T04:12:50.266Z,71.14
2023-01-11T04:15:47.649Z,71.32
2023-01-11T04:18:45.276Z,71.42
2023-01-11T04:21:42.639Z,71.47
2023-01-11T04:24:40.404Z,71.57
2023-01-11T04:27:37.818Z,71.62
2023-01-11T04:30:36.345Z,71.70
2023-01-11T04:33:34.021Z,71.72
2023-01-11T04:36:31.507Z,71.74
2023-01-11T04:39:29.240Z,71.72
2023-01-11T04:42:26.602Z,71.84
2023-01-11T04:45:24.167Z,71.99
2023-01-11T04:48:21.559Z,72.01
2023-01-11T04:51:19.272Z,72.04
2023-01-11T04:54:16.645Z,72.15
2023-01-11T04:57:14.311Z,72.31
2023-01-11T05:00:11.767Z,72.42
2023-01-11T05:03:09.432Z,72.52
2023-01-11T05:06:06.831Z,72.60
2023-01-11T05:09:05.641Z,72.66
2023-01-11T05:12:03.061Z,72.82
2023-01-11T05:15:00.800Z,72.90
2023-01-11T05:17:58.543Z,72.97
2023-01-11T05:20:55.989Z,73.03
2023-01-11T05:23:53.737Z,73.01
2023-01-11T05:26:52.565Z,73.14
2023-01-11T05:29:50.234Z,73.23
2023-01-11T05:32:47.647Z,73.32
2023-01-11T05:35:45.272Z,73.43
2023-01-11T05:38:42.818Z,73.49
2023-01-11T05:41:40.585Z,73.58
2023-01-11T05:44:58.045Z,73.64
2023-01-11T05:47:55.688Z,73.77
2023-01-11T05:50:53.421Z,73.86
2023-01-11T05:53:50.847Z,73.92
2023-01-11T05:56:48.562Z,73.96
2023-01-11T05:59:46.015Z,74.05
2023-01-11T06:02:43.877Z,74.24
2023-01-11T06:05:41.689Z,74.36
2023-01-11T06:08:39.505Z,74.40
2023-01-11T06:11:36.969Z,74.39
2023-01-11T06:14:37.838Z,74.40
2023-01-11T06:17:35.898Z,74.38
2023-01-11T06:20:33.357Z,74.39
2023-01-11T06:23:30.992Z,74.40
2023-01-11T06:26:28.417Z,74.43
2023-01-11T06:29:26.220Z,74.41
2023-01-11T06:32:23.650Z,74.48
2023-01-11T06:35:21.454Z,74.54
2023-01-11T06:38:18.894Z,74.61
2023-01-11T06:41:16.681Z,74.61
2023-01-11T06:44:14.109Z,74.60
2023-01-11T06:47:11.818Z,74.65
2023-01-11T06:50:09.257Z,74.71
2023-01-11T06:53:06.876Z,74.65
2023-01-11T06:56:04.337Z,74.69
2023-01-11T06:59:02.029Z,74.77
2023-01-11T07:02:00.002Z,74.85
2023-01-11T07:04:57.823Z,74.90
2023-01-11T07:07:55.259Z,74.93
2023-01-11T07:10:52.866Z,74.99
2023-01-11T07:13:50.635Z,74.97
2023-01-11T07:16:48.055Z,74.98
2023-01-11T07:19:45.671Z,74.96
2023-01-11T07:22:43.149Z,74.98
2023-01-11T07:25:41.653Z,75.00
2023-01-11T07:28:39.112Z,75.03
2023-01-11T07:31:36.875Z,75.03
2023-01-11T07:34:34.380Z,75.00
2023-01-11T07:37:33.125Z,75.00
2023-01-11T07:40:30.566Z,75.00
2023-01-11T07:43:28.364Z,75.00
2023-01-11T07:46:25.828Z,75.10
2023-01-11T07:49:24.314Z,75.30
2023-01-11T07:52:21.790Z,75.45
2023-01-11T07:55:19.231Z,75.50
2023-01-11T07:58:16.659Z,75.59
2023-01-11T08:01:14.446Z,75.66
2023-01-11T08:04:13.617Z,75.69
2023-01-11T08:07:11.118Z,75.63
2023-01-11T08:10:09.013Z,75.56
2023-01-11T08:13:24.191Z,75.53
2023-01-11T08:16:22.415Z,75.52
2023-01-11T08:19:20.116Z,75.50
2023-01-11T08:22:18.786Z,75.43
2023-01-11T08:25:16.554Z,75.27
2023-01-11T08:28:14.059Z,75.17
2023-01-11T08:31:11.942Z,75.02
2023-01-11T08:34:09.418Z,74.79
2023-01-11T08:37:07.233Z,74.60
2023-01-11T08:40:04.649Z,74.46
2023-01-11T08:43:02.349Z,74.32
2023-01-11T08:45:59.918Z,74.22
2023-01-11T08:48:57.764Z,74.01
2023-01-11T08:51:55.238Z,73.81
2023-01-11T08:54:52.938Z,73.58
2023-01-11T08:57:50.366Z,73.43
2023-01-11T09:00:48.003Z,73.14
2023-01-11T09:03:45.429Z,72.86
2023-01-11T09:06:43.136Z,72.36
2023-01-11T09:09:41.234Z,71.86
2023-01-11T09:12:38.716Z,71.34
2023-01-11T09:15:36.557Z,70.95
2023-01-11T09:18:34.020Z,70.54
2023-01-11T09:21:32.409Z,70.11
2023-01-11T09:24:29.853Z,69.94
2023-01-11T09:27:27.754Z,69.78
2023-01-11T09:30:25.208Z,69.59
2023-01-11T09:33:22.935Z,69.45
2023-01-11T09:36:22.149Z,69.13
2023-01-11T09:39:22.595Z,68.83
2023-01-11T09:42:21.193Z,68.61
2023-01-11T09:45:18.703Z,68.30
2023-01-11T09:48:21.734Z,67.99
2023-01-11T09:51:20.731Z,67.68
2023-01-11T09:54:18.446Z,67.44
2023-01-11T09:57:16.052Z,67.10
2023-01-11T10:00:15.849Z,66.63
2023-01-11T10:03:13.477Z,66.33
2023-01-11T10:06:10.944Z,66.13
2023-01-11T10:18:41.618Z,65.55
2023-01-11T10:19:31.434Z,65.01
2023-01-11T10:22:23.819Z,64.59
2023-01-11T10:25:25.247Z,64.41
2023-01-11T10:28:25.193Z,64.40
2023-01-11T10:31:44.434Z,64.23
2023-01-11T10:34:59.764Z,64.02
2023-01-11T10:38:11.389Z,63.57
2023-01-11T10:41:15.884Z,63.11
2023-01-11T10:44:13.514Z,62.78
2023-01-11T10:47:11.116Z,62.40
2023-01-11T10:50:08.869Z,62.29
2023-01-11T10:53:06.556Z,62.16
2023-01-11T10:56:05.106Z,61.97
2023-01-11T10:59:05.500Z,61.55
2023-01-11T11:02:02.975Z,61.09
2023-01-11T11:05:00.947Z,60.57
2023-01-11T11:07:58.370Z,59.60
2023-01-11T11:10:56.665Z,59.62
2023-01-11T11:13:54.345Z,59.16
2023-01-11T11:16:51.790Z,58.89
2023-01-11T11:19:49.535Z,58.83
2023-01-11T11:22:46.959Z,59.13
2023-01-11T11:25:44.535Z,58.58
2023-01-11T11:28:42.016Z,58.25
2023-01-11T11:31:41.482Z,58.02
2023-01-11T11:34:39.908Z,57.97
2023-01-11T11:37:37.401Z,57.95
2023-01-11T11:40:35.155Z,57.97
2023-01-11T11:43:32.585Z,57.58
2023-01-11T11:46:30.321Z,57.33
2023-01-11T11:49:28.049Z,57.46
2023-01-11T11:52:25.477Z,57.46
2023-01-11T11:55:23.276Z,57.47
2023-01-11T11:58:20.729Z,57.44
2023-01-11T12:01:18.500Z,57.59
2023-01-11T12:04:15.972Z,57.58
2023-01-11T12:07:15.379Z,57.36
2023-01-11T12:10:13.161Z,56.78
2023-01-11T12:13:10.572Z,56.83
2023-01-11T12:16:08.589Z,56.83
2023-01-11T12:19:06.011Z,56.94
2023-01-11T12:22:04.518Z,57.11
2023-01-11T12:25:01.948Z,57.04
2023-01-11T12:27:59.725Z,57.17
2023-01-11T12:30:57.208Z,57.13
2023-01-11T12:33:54.976Z,56.93
2023-01-11T12:36:52.674Z,56.92
2023-01-11T12:39:50.109Z,56.97
2023-01-11T12:42:47.950Z,56.72
2023-01-11T12:45:45.404Z,56.67
2023-01-11T12:48:43.054Z,56.75
2023-01-11T12:51:40.484Z,56.78
2023-01-11T12:54:38.234Z,56.66
2023-01-11T12:57:35.986Z,56.78
2023-01-11T13:00:33.440Z,56.65
2023-01-11T13:03:34.469Z,56.78
2023-01-11T13:06:32.161Z,56.94
2023-01-11T13:09:29.937Z,57.09
2023-01-11T13:12:27.378Z,57.12
2023-01-11T13:15:25.139Z,57.13
2023-01-11T13:18:23.220Z,57.02
2023-01-11T13:21:20.637Z,57.33
2023-01-11T13:24:18.451Z,57.73
2023-01-11T13:27:15.940Z,57.55
2023-01-11T13:30:13.880Z,57.72
2023-01-11T13:33:11.320Z,57.73
2023-01-11T13:36:21.834Z,57.64
2023-01-11T13:39:20.311Z,57.55
2023-01-11T13:42:17.776Z,57.36
2023-01-11T13:45:15.518Z,57.34
2023-01-11T13:48:13.103Z,57.32
2023-01-11T13:51:10.803Z,57.39
2023-01-11T13:54:08.251Z,57.33
2023-01-11T13:57:05.967Z,57.45
2023-01-11T14:00:03.693Z,57.29
2023-01-11T14:03:01.588Z,57.15
2023-01-11T14:05:59.266Z,57.08
2023-01-11T14:08:57.877Z,57.29
2023-01-11T14:11:55.498Z,57.44
2023-01-11T14:14:54.921Z,57.43
2023-01-11T14:17:52.427Z,57.34
2023-01-11T14:20:50.622Z,57.32
2023-01-11T14:23:48.101Z,57.39
2023-01-11T14:26:45.714Z,57.42
2023-01-11T14:29:43.145Z,57.53
2023-01-11T14:32:40.924Z,57.54
2023-01-11T14:35:38.572Z,57.67
2023-01-11T14:38:36.025Z,57.80
2023-01-11T14:41:33.779Z,57.80
2023-01-11T14:44:31.215Z,57.88
2023-01-11T14:47:28.826Z,57.94
2023-01-11T14:50:26.285Z,57.94
2023-01-11T14:53:23.984Z,58.26
2023-01-11T14:56:21.415Z,58.41
2023-01-11T14:59:19.171Z,58.22
2023-01-11T15:02:16.620Z,58.19
2023-01-11T15:05:14.697Z,58.22
2023-01-11T15:08:12.501Z,58.30
2023-01-11T15:11:09.951Z,58.45
2023-01-11T15:14:07.723Z,58.43
2023-01-11T15:17:23.191Z,58.62
2023-01-11T15:20:21.480Z,58.88
2023-01-11T15:23:19.349Z,59.03
2023-01-11T15:26:16.831Z,58.99
2023-01-11T15:29:14.560Z,59.06
2023-01-11T15:32:12.208Z,59.27
2023-01-11T15:35:09.805Z,59.55
2023-01-11T15:38:07.247Z,59.89
2023-01-11T15:41:18.838Z,60.14
2023-01-11T15:44:16.818Z,60.27
2023-01-11T15:47:14.292Z,60.28
2023-01-11T15:50:11.949Z,60.48
2023-01-11T15:53:09.375Z,60.63
2023-01-11T15:56:07.190Z,60.78
2023-01-11T15:59:04.703Z,60.68
2023-01-11T16:02:02.286Z,60.72
2023-01-11T16:04:59.740Z,60.83
2023-01-11T16:07:57.989Z,60.90
2023-01-11T16:10:55.418Z,60.92
2023-01-11T16:13:53.175Z,61.03
2023-01-11T16:16:54.779Z,61.16
2023-01-11T16:19:56.692Z,61.06
2023-01-11T16:22:54.456Z,61.05
2023-01-11T16:25:51.879Z,61.02
2023-01-11T16:28:49.677Z,61.13
2023-01-11T16:31:48.066Z,61.22
2023-01-11T16:34:47.165Z,61.41
2023-01-11T16:37:44.807Z,61.49
2023-01-11T16:40:42.243Z,61.50
2023-01-11T16:43:39.926Z,61.60
2023-01-11T16:46:37.353Z,61.78
2023-01-11T16:49:35.191Z,61.92
2023-01-11T16:52:34.959Z,62.08
2023-01-11T16:55:32.682Z,62.25
2023-01-11T16:58:30.427Z,62.57
2023-01-11T17:01:27.947Z,62.75
2023-01-11T17:04:25.746Z,62.92
2023-01-11T17:07:23.645Z,63.01
2023-01-11T17:10:21.299Z,63.07
2023-01-11T17:13:33.021Z,63.14
2023-01-11T17:16:30.557Z,63.29
2023-01-11T17:19:29.164Z,63.30
2023-01-11T17:22:27.132Z,63.42
2023-01-11T17:25:26.061Z,63.58
2023-01-11T17:28:23.556Z,63.66
2023-01-11T17:31:21.343Z,63.81
2023-01-11T17:34:19.048Z,64.05
2023-01-11T17:37:16.507Z,64.26
2023-01-11T17:40:14.327Z,64.46
2023-01-11T17:43:29.611Z,64.67
2023-01-11T17:46:27.871Z,64.90
2023-01-11T17:49:25.308Z,65.11
2023-01-11T17:52:23.117Z,65.24
2023-01-11T17:55:20.892Z,65.32
2023-01-11T17:58:19.725Z,65.41
2023-01-11T18:01:18.840Z,65.40
2023-01-11T18:04:18.871Z,65.46
2023-01-11T18:07:16.858Z,65.53
2023-01-11T18:10:14.296Z,65.59
2023-01-11T18:13:12.595Z,65.61
2023-01-11T18:16:10.343Z,65.66
2023-01-11T18:19:08.161Z,65.69
2023-01-11T18:22:05.897Z,65.70
2023-01-11T18:25:04.564Z,65.67
2023-01-11T18:28:02.272Z,65.64
2023-01-11T18:31:03.716Z,65.65
2023-01-11T18:34:01.833Z,65.48
2023-01-11T18:37:00.047Z,65.50
2023-01-11T18:39:57.723Z,65.36
2023-01-11T18:42:56.323Z,65.32
2023-01-11T18:45:54.030Z,65.35
2023-01-11T18:48:52.023Z,65.21
2023-01-11T18:51:50.300Z,65.18
2023-01-11T18:54:48.198Z,65.28
2023-01-11T18:57:48.845Z,65.28
2023-01-11T19:00:47.350Z,65.28
2023-01-11T19:03:46.213Z,65.25
2023-01-11T19:06:44.576Z,65.20
2023-01-11T19:09:46.412Z,65.14
2023-01-11T19:12:45.751Z,65.07
2023-01-11T19:15:44.598Z,65.00
2023-01-11T19:18:42.155Z,64.97
2023-01-11T19:21:39.924Z,64.92
2023-01-11T19:24:37.956Z,64.93
2023-01-11T19:27:36.847Z,64.98
2023-01-11T19:30:37.996Z,65.16
2023-01-11T19:33:35.756Z,65.46
2023-01-11T19:36:33.184Z,65.94
2023-01-11T19:39:30.772Z,66.50
2023-01-11T19:42:29.312Z,67.11
2023-01-11T19:45:27.442Z,68.06
2023-01-11T19:48:25.823Z,68.68
2023-01-11T19:51:23.511Z,69.37
2023-01-11T19:54:23.495Z,70.08
2023-01-11T19:57:22.076Z,70.65
2023-01-11T20:00:20.595Z,71.22
2023-01-11T20:03:19.838Z,71.98
2023-01-11T20:06:18.324Z,72.48
2023-01-11T20:09:16.522Z,72.93
2023-01-11T20:12:16.151Z,73.25
2023-01-11T20:15:14.700Z,73.63
2023-01-11T20:18:13.022Z,74.10
2023-01-11T20:21:11.418Z,74.47
2023-01-11T20:24:10.145Z,74.81
2023-01-11T20:27:09.591Z,75.24
2023-01-11T20:30:08.764Z,75.40
2023-01-11T20:33:06.743Z,75.60
2023-01-11T20:36:05.038Z,75.64
2023-01-11T20:39:02.483Z,75.70
2023-01-11T20:42:03.152Z,75.68
2023-01-11T20:45:01.947Z,75.66
2023-01-11T20:47:59.816Z,75.65
2023-01-11T20:50:58.272Z,75.67
2023-01-11T20:53:55.789Z,75.61
2023-01-11T20:56:54.041Z,75.61
2023-01-11T20:59:52.597Z,75.58
2023-01-11T21:02:50.388Z,75.49
2023-01-11T21:05:47.856Z,75.46
2023-01-11T21:08:45.549Z,75.41
2023-01-11T21:11:43.184Z,75.36
2023-01-11T21:14:40.622Z,75.29
2023-01-11T21:17:38.808Z,75.28
2023-01-11T21:20:36.474Z,75.19
2023-01-11T21:23:34.149Z,75.15
2023-01-11T21:26:31.601Z,75.10
2023-01-11T21:29:29.358Z,75.04
2023-01-11T21:32:27.342Z,75.00
2023-01-11T21:35:24.760Z,75.00
2023-01-11T21:38:22.476Z,75.06
2023-01-11T21:41:39.924Z,75.17
2023-01-11T21:44:37.647Z,75.20
2023-01-11T21:47:35.104Z,75.22
2023-01-11T21:50:32.873Z,75.22
2023-01-11T21:53:30.312Z,75.22
2023-01-11T21:56:28.121Z,75.22
2023-01-11T21:59:26.181Z,75.25
2023-01-11T22:02:23.644Z,75.23
2023-01-11T22:05:21.364Z,75.30
2023-01-11T22:08:18.808Z,75.36
2023-01-11T22:11:16.423Z,75.46
2023-01-11T22:14:13.841Z,75.56
2023-01-11T22:17:11.657Z,75.68
2023-01-11T22:20:09.064Z,75.78
2023-01-11T22:23:06.770Z,75.90
2023-01-11T22:26:04.235Z,75.97
2023-01-11T22:29:15.547Z,76.03
2023-01-11T22:32:13.386Z,76.09
2023-01-11T22:35:10.833Z,76.18
2023-01-11T22:38:08.620Z,76.32
2023-01-11T22:41:06.086Z,76.43
2023-01-11T22:44:03.838Z,76.57
2023-01-11T22:47:01.648Z,76.68
2023-01-11T22:49:59.065Z,76.81
2023-01-11T22:52:56.852Z,76.93
2023-01-11T22:55:54.289Z,77.01
2023-01-11T22:58:52.068Z,77.10
2023-01-11T23:01:49.490Z,77.10
2023-01-11T23:04:47.200Z,77.16
2023-01-11T23:07:44.629Z,77.17
2023-01-11T23:10:42.424Z,77.13
2023-01-11T23:14:00.459Z,77.10
2023-01-11T23:16:58.176Z,77.10
2023-01-11T23:19:55.777Z,77.07
2023-01-11T23:22:53.228Z,77.00
2023-01-11T23:25:50.909Z,77.00
2023-01-11T23:28:48.357Z,76.97
2023-01-11T23:31:46.213Z,76.90
2023-01-11T23:34:44.436Z,76.90
2023-01-11T23:37:42.194Z,76.91
2023-01-11T23:40:53.667Z,76.88
2023-01-11T23:43:51.107Z,76.84
2023-01-11T23:47:06.377Z,76.88
2023-01-11T23:50:03.811Z,76.89
2023-01-11T23:53:01.532Z,76.90
2023-01-11T23:55:58.982Z,76.97
2023-01-11T23:58:56.572Z,77.00
